Time,TemperatureF,DewpointF,PressureIn,WindDirection,WindDirectionDegrees,WindSpeedMPH,WindSpeedGustMPH,Humidity,HourlyPrecipIn,Conditions,Clouds,dailyrainin,SoftwareType,DateUTC
2013-02-15 00:00:00,37.2,15.1,29.45,North,-999,-999.0,-999.0,40,0.00,,,0.00,meteohub,2013-02-15 06:00:00,
2013-02-15 00:05:00,37.0,14.9,29.45,North,-999,-999.0,-999.0,40,0.00,,,0.00,meteohub,2013-02-15 06:05:00,
2013-02-15 00:11:00,36.9,14.7,29.48,North,-999,-999.0,-999.0,40,0.00,,,0.00,meteohub,2013-02-15 06:11:00,
2013-02-15 00:16:00,36.7,14.5,29.48,North,-999,-999.0,-999.0,40,0.00,,,0.00,meteohub,2013-02-15 06:16:00,
2013-02-15 00:21:00,36.5,14.5,29.48,North,-999,-999.0,-999.0,40,0.00,,,0.00,meteohub,2013-02-15 06:21:00,
2013-02-15 00:26:00,36.3,14.4,29.48,North,-999,-999.0,-999.0,40,0.00,,,0.00,meteohub,2013-02-15 06:26:00,
2013-02-15 00:32:00,36.3,14.4,29.48,North,-999,-999.0,-999.0,40,0.00,,,0.00,meteohub,2013-02-15 06:32:00,
2013-02-15 00:37:00,36.1,14.2,29.48,North,-999,-999.0,-999.0,40,0.00,,,0.00,meteohub,2013-02-15 06:37:00,
2013-02-15 00:42:00,36.3,14.4,29.48,North,-999,-999.0,-999.0,40,0.00,,,0.00,meteohub,2013-02-15 06:42:00,
2013-02-15 00:47:00,36.3,14.4,29.48,North,-999,-999.0,-999.0,40,0.00,,,0.00,meteohub,2013-02-15 06:47:00,
2013-02-15 00:52:00,36.5,14.5,29.48,North,-999,-999.0,-999.0,40,0.00,,,0.00,meteohub,2013-02-15 06:52:00,
2013-02-15 00:57:00,36.3,14.4,29.48,North,-999,-999.0,-999.0,40,0.00,,,0.00,meteohub,2013-02-15 06:57:00,
2013-02-15 01:02:00,36.3,14.4,29.48,North,-999,-999.0,-999.0,40,0.00,,,0.00,meteohub,2013-02-15 07:02:00,
2013-02-15 01:07:00,36.1,14.2,29.48,North,-999,-999.0,-999.0,40,0.00,,,0.00,meteohub,2013-02-15 07:07:00,
2013-02-15 01:12:00,36.3,14.4,29.48,North,-999,-999.0,-999.0,40,0.00,,,0.00,meteohub,2013-02-15 07:12:00,
2013-02-15 01:17:00,36.5,14.5,29.48,North,-999,-999.0,-999.0,40,0.00,,,0.00,meteohub,2013-02-15 07:17:00,
2013-02-15 01:22:00,36.7,14.5,29.48,North,-999,-999.0,-999.0,40,0.00,,,0.00,meteohub,2013-02-15 07:22:00,
2013-02-15 01:27:00,36.5,14.5,29.48,North,-999,-999.0,-999.0,40,0.00,,,0.00,meteohub,2013-02-15 07:27:00,
2013-02-15 01:32:00,36.5,14.5,29.48,North,-999,-999.0,-999.0,40,0.00,,,0.00,meteohub,2013-02-15 07:32:00,
2013-02-15 01:38:00,36.7,14.5,29.48,North,-999,-999.0,-999.0,40,0.00,,,0.00,meteohub,2013-02-15 07:38:00,
2013-02-15 01:43:00,37.0,14.9,29.48,North,-999,-999.0,-999.0,40,0.00,,,0.00,meteohub,2013-02-15 07:43:00,
2013-02-15 01:48:00,37.0,14.9,29.48,North,-999,-999.0,-999.0,40,0.00,,,0.00,meteohub,2013-02-15 07:48:00,
2013-02-15 01:54:00,37.2,15.1,29.48,North,-999,-999.0,-999.0,40,0.00,,,0.00,meteohub,2013-02-15 07:54:00,
2013-02-15 01:59:00,37.4,14.7,29.48,North,-999,-999.0,-999.0,39,0.00,,,0.00,meteohub,2013-02-15 07:59:00,
2013-02-15 02:04:00,37.2,15.1,29.48,North,-999,-999.0,-999.0,40,0.00,,,0.00,meteohub,2013-02-15 08:04:00,
2013-02-15 02:10:00,37.2,15.1,29.51,North,-999,-999.0,-999.0,40,0.00,,,0.00,meteohub,2013-02-15 08:10:00,
2013-02-15 02:15:00,37.2,15.1,29.51,North,-999,-999.0,-999.0,40,0.00,,,0.00,meteohub,2013-02-15 08:15:00,
2013-02-15 02:20:00,37.0,14.9,29.51,North,-999,-999.0,-999.0,40,0.00,,,0.00,meteohub,2013-02-15 08:20:00,
2013-02-15 02:25:00,37.0,14.9,29.51,North,-999,-999.0,-999.0,40,0.00,,,0.00,meteohub,2013-02-15 08:25:00,
2013-02-15 02:31:00,37.0,14.9,29.51,North,-999,-999.0,-999.0,40,0.00,,,0.00,meteohub,2013-02-15 08:31:00,
2013-02-15 02:36:00,36.9,14.7,29.51,North,-999,-999.0,-999.0,40,0.00,,,0.00,meteohub,2013-02-15 08:36:00,
2013-02-15 02:41:00,36.9,14.7,29.51,North,-999,-999.0,-999.0,40,0.00,,,0.00,meteohub,2013-02-15 08:41:00,
2013-02-15 02:47:00,36.5,14.5,29.51,North,-999,-999.0,-999.0,40,0.00,,,0.00,meteohub,2013-02-15 08:47:00,
2013-02-15 02:52:00,35.8,13.8,29.51,North,-999,-999.0,-999.0,40,0.00,,,0.00,meteohub,2013-02-15 08:52:00,
2013-02-15 02:57:00,35.1,13.1,29.51,North,-999,-999.0,-999.0,40,0.00,,,0.00,meteohub,2013-02-15 08:57:00,
2013-02-15 03:02:00,34.2,12.9,29.51,North,-999,-999.0,-999.0,41,0.00,,,0.00,meteohub,2013-02-15 09:02:00,
2013-02-15 03:07:00,33.6,12.4,29.51,North,-999,-999.0,-999.0,41,0.00,,,0.00,meteohub,2013-02-15 09:07:00,
2013-02-15 03:12:00,33.1,12.0,29.54,North,-999,-999.0,-999.0,41,0.00,,,0.00,meteohub,2013-02-15 09:12:00,
2013-02-15 03:17:00,32.7,11.7,29.54,North,-999,-999.0,-999.0,41,0.00,,,0.00,meteohub,2013-02-15 09:17:00,
2013-02-15 03:22:00,32.7,11.7,29.54,North,-999,-999.0,-999.0,41,0.00,,,0.00,meteohub,2013-02-15 09:22:00,
2013-02-15 03:27:00,32.9,11.8,29.51,North,-999,-999.0,-999.0,41,0.00,,,0.00,meteohub,2013-02-15 09:27:00,
2013-02-15 03:32:00,33.1,12.0,29.51,North,-999,-999.0,-999.0,41,0.00,,,0.00,meteohub,2013-02-15 09:32:00,
2013-02-15 03:37:00,33.1,12.0,29.51,North,-999,-999.0,-999.0,41,0.00,,,0.00,meteohub,2013-02-15 09:37:00,
2013-02-15 03:42:00,33.3,12.0,29.54,North,-999,-999.0,-999.0,41,0.00,,,0.00,meteohub,2013-02-15 09:42:00,
2013-02-15 03:47:00,33.3,12.0,29.54,North,-999,-999.0,-999.0,41,0.00,,,0.00,meteohub,2013-02-15 09:47:00,
2013-02-15 03:52:00,33.3,12.0,29.54,North,-999,-999.0,-999.0,41,0.00,,,0.00,meteohub,2013-02-15 09:52:00,
2013-02-15 03:57:00,33.1,12.0,29.54,North,-999,-999.0,-999.0,41,0.00,,,0.00,meteohub,2013-02-15 09:57:00,
2013-02-15 04:02:00,32.9,11.8,29.54,North,-999,-999.0,-999.0,41,0.00,,,0.00,meteohub,2013-02-15 10:02:00,
2013-02-15 04:07:00,32.9,11.8,29.54,North,-999,-999.0,-999.0,41,0.00,,,0.00,meteohub,2013-02-15 10:07:00,
2013-02-15 04:12:00,32.9,11.8,29.54,North,-999,-999.0,-999.0,41,0.00,,,0.00,meteohub,2013-02-15 10:12:00,
2013-02-15 04:17:00,32.7,11.7,29.54,North,-999,-999.0,-999.0,41,0.00,,,0.00,meteohub,2013-02-15 10:17:00,
2013-02-15 04:22:00,32.7,11.7,29.54,North,-999,-999.0,-999.0,41,0.00,,,0.00,meteohub,2013-02-15 10:22:00,
2013-02-15 04:27:00,32.5,11.5,29.54,North,-999,-999.0,-999.0,41,0.00,,,0.00,meteohub,2013-02-15 10:27:00,
2013-02-15 04:32:00,32.5,11.5,29.54,North,-999,-999.0,-999.0,41,0.00,,,0.00,meteohub,2013-02-15 10:32:00,
2013-02-15 04:37:00,32.2,11.1,29.54,North,-999,-999.0,-999.0,41,0.00,,,0.00,meteohub,2013-02-15 10:37:00,
2013-02-15 04:43:00,32.0,10.9,29.54,North,-999,-999.0,-999.0,41,0.00,,,0.00,meteohub,2013-02-15 10:43:00,
2013-02-15 04:48:00,31.8,10.8,29.54,North,-999,-999.0,-999.0,41,0.00,,,0.00,meteohub,2013-02-15 10:48:00,
2013-02-15 04:53:00,31.6,10.6,29.54,North,-999,-999.0,-999.0,41,0.00,,,0.00,meteohub,2013-02-15 10:53:00,
2013-02-15 04:59:00,31.6,10.6,29.57,North,-999,-999.0,-999.0,41,0.00,,,0.00,meteohub,2013-02-15 10:59:00,
2013-02-15 05:04:00,31.3,10.2,29.57,North,-999,-999.0,-999.0,41,0.00,,,0.00,meteohub,2013-02-15 11:04:00,
2013-02-15 05:09:00,31.1,10.2,29.57,North,-999,-999.0,-999.0,41,0.00,,,0.00,meteohub,2013-02-15 11:09:00,
2013-02-15 05:15:00,31.1,10.2,29.57,North,-999,-999.0,-999.0,41,0.00,,,0.00,meteohub,2013-02-15 11:15:00,
2013-02-15 05:20:00,30.9,10.0,29.57,North,-999,-999.0,-999.0,41,0.00,,,0.00,meteohub,2013-02-15 11:20:00,
2013-02-15 05:25:00,30.7,9.9,29.57,North,-999,-999.0,-999.0,41,0.00,,,0.00,meteohub,2013-02-15 11:25:00,
2013-02-15 05:31:00,30.7,9.9,29.57,North,-999,-999.0,-999.0,41,0.00,,,0.00,meteohub,2013-02-15 11:31:00,
2013-02-15 05:36:00,30.7,9.9,29.57,North,-999,-999.0,-999.0,41,0.00,,,0.00,meteohub,2013-02-15 11:36:00,
2013-02-15 05:41:00,30.6,9.7,29.57,North,-999,-999.0,-999.0,41,0.00,,,0.00,meteohub,2013-02-15 11:41:00,
2013-02-15 05:47:00,30.2,9.3,29.57,North,-999,-999.0,-999.0,41,0.00,,,0.00,meteohub,2013-02-15 11:47:00,
2013-02-15 05:52:00,29.7,8.8,29.57,North,-999,-999.0,-999.0,41,0.00,,,0.00,meteohub,2013-02-15 11:52:00,
2013-02-15 05:57:00,29.1,8.4,29.57,North,-999,-999.0,-999.0,41,0.00,,,0.00,meteohub,2013-02-15 11:57:00,
2013-02-15 06:02:00,28.6,7.9,29.57,North,-999,-999.0,-999.0,41,0.00,,,0.00,meteohub,2013-02-15 12:02:00,
2013-02-15 06:07:00,28.4,7.7,29.57,North,-999,-999.0,-999.0,41,0.00,,,0.00,meteohub,2013-02-15 12:07:00,
2013-02-15 06:12:00,27.9,7.2,29.60,North,-999,-999.0,-999.0,41,0.00,,,0.00,meteohub,2013-02-15 12:12:00,
2013-02-15 06:17:00,27.5,6.8,29.60,North,-999,-999.0,-999.0,41,0.00,,,0.00,meteohub,2013-02-15 12:17:00,
2013-02-15 06:22:00,27.1,6.6,29.60,North,-999,-999.0,-999.0,41,0.00,,,0.00,meteohub,2013-02-15 12:22:00,
2013-02-15 06:27:00,27.0,6.4,29.60,North,-999,-999.0,-999.0,41,0.00,,,0.00,meteohub,2013-02-15 12:27:00,
2013-02-15 06:32:00,26.8,6.3,29.60,North,-999,-999.0,-999.0,41,0.00,,,0.00,meteohub,2013-02-15 12:32:00,
2013-02-15 06:37:00,27.0,6.4,29.60,North,-999,-999.0,-999.0,41,0.00,,,0.00,meteohub,2013-02-15 12:37:00,
2013-02-15 06:42:00,26.8,6.3,29.60,North,-999,-999.0,-999.0,41,0.00,,,0.00,meteohub,2013-02-15 12:42:00,
2013-02-15 06:47:00,26.6,6.6,29.60,North,-999,-999.0,-999.0,42,0.00,,,0.00,meteohub,2013-02-15 12:47:00,
2013-02-15 06:52:00,26.4,6.4,29.60,North,-999,-999.0,-999.0,42,0.00,,,0.00,meteohub,2013-02-15 12:52:00,
2013-02-15 06:57:00,26.2,6.3,29.63,North,-999,-999.0,-999.0,42,0.00,,,0.00,meteohub,2013-02-15 12:57:00,
2013-02-15 07:02:00,26.2,6.3,29.63,North,-999,-999.0,-999.0,42,0.00,,,0.00,meteohub,2013-02-15 13:02:00,
2013-02-15 07:07:00,26.1,6.1,29.63,North,-999,-999.0,-999.0,42,0.00,,,0.00,meteohub,2013-02-15 13:07:00,
2013-02-15 07:12:00,26.1,6.1,29.63,North,-999,-999.0,-999.0,42,0.00,,,0.00,meteohub,2013-02-15 13:12:00,
2013-02-15 07:17:00,25.7,5.7,29.63,North,-999,-999.0,-999.0,42,0.00,,,0.00,meteohub,2013-02-15 13:17:00,
2013-02-15 07:22:00,25.5,5.5,29.63,North,-999,-999.0,-999.0,42,0.00,,,0.00,meteohub,2013-02-15 13:22:00,
2013-02-15 07:27:00,25.5,5.5,29.63,North,-999,-999.0,-999.0,42,0.00,,,0.00,meteohub,2013-02-15 13:27:00,
2013-02-15 07:33:00,25.5,5.5,29.63,North,-999,-999.0,-999.0,42,0.00,,,0.00,meteohub,2013-02-15 13:33:00,
2013-02-15 07:38:00,25.3,5.4,29.63,North,-999,-999.0,-999.0,42,0.00,,,0.00,meteohub,2013-02-15 13:38:00,
2013-02-15 07:43:00,25.5,5.5,29.63,North,-999,-999.0,-999.0,42,0.00,,,0.00,meteohub,2013-02-15 13:43:00,
2013-02-15 07:49:00,25.5,5.5,29.63,North,-999,-999.0,-999.0,42,0.00,,,0.00,meteohub,2013-02-15 13:49:00,
2013-02-15 07:54:00,25.7,5.7,29.63,North,-999,-999.0,-999.0,42,0.00,,,0.00,meteohub,2013-02-15 13:54:00,
2013-02-15 07:59:00,25.9,5.9,29.63,North,-999,-999.0,-999.0,42,0.00,,,0.00,meteohub,2013-02-15 13:59:00,
2013-02-15 08:04:00,26.1,6.1,29.63,North,-999,-999.0,-999.0,42,0.00,,,0.00,meteohub,2013-02-15 14:04:00,
2013-02-15 08:10:00,25.9,5.9,29.63,North,-999,-999.0,-999.0,42,0.00,,,0.00,meteohub,2013-02-15 14:10:00,
2013-02-15 08:15:00,25.9,5.9,29.63,North,-999,-999.0,-999.0,42,0.00,,,0.00,meteohub,2013-02-15 14:15:00,
2013-02-15 08:20:00,26.1,6.1,29.63,North,-999,-999.0,-999.0,42,0.00,,,0.00,meteohub,2013-02-15 14:20:00,
2013-02-15 08:26:00,25.9,5.9,29.63,North,-999,-999.0,-999.0,42,0.00,,,0.00,meteohub,2013-02-15 14:26:00,
2013-02-15 08:31:00,25.9,5.9,29.63,North,-999,-999.0,-999.0,42,0.00,,,0.00,meteohub,2013-02-15 14:31:00,
2013-02-15 08:36:00,26.1,6.1,29.63,North,-999,-999.0,-999.0,42,0.00,,,0.00,meteohub,2013-02-15 14:36:00,
2013-02-15 08:42:00,26.1,6.1,29.66,North,-999,-999.0,-999.0,42,0.00,,,0.00,meteohub,2013-02-15 14:42:00,
2013-02-15 08:47:00,26.1,6.1,29.66,North,-999,-999.0,-999.0,42,0.00,,,0.00,meteohub,2013-02-15 14:47:00,
2013-02-15 08:52:00,26.1,6.1,29.66,North,-999,-999.0,-999.0,42,0.00,,,0.00,meteohub,2013-02-15 14:52:00,
2013-02-15 08:57:00,26.2,6.3,29.66,North,-999,-999.0,-999.0,42,0.00,,,0.00,meteohub,2013-02-15 14:57:00,
2013-02-15 09:02:00,26.4,6.4,29.66,North,-999,-999.0,-999.0,42,0.00,,,0.00,meteohub,2013-02-15 15:02:00,
2013-02-15 09:08:00,26.6,6.6,29.66,North,-999,-999.0,-999.0,42,0.00,,,0.00,meteohub,2013-02-15 15:08:00,
2013-02-15 09:13:00,26.8,6.3,29.63,North,-999,-999.0,-999.0,41,0.00,,,0.00,meteohub,2013-02-15 15:13:00,
2013-02-15 09:18:00,26.6,6.6,29.63,North,-999,-999.0,-999.0,42,0.00,,,0.00,meteohub,2013-02-15 15:18:00,
2013-02-15 09:24:00,26.8,6.3,29.63,North,-999,-999.0,-999.0,41,0.00,,,0.00,meteohub,2013-02-15 15:24:00,
2013-02-15 09:29:00,27.3,6.8,29.66,North,-999,-999.0,-999.0,41,0.00,,,0.00,meteohub,2013-02-15 15:29:00,
2013-02-15 09:34:00,27.3,6.8,29.66,North,-999,-999.0,-999.0,41,0.00,,,0.00,meteohub,2013-02-15 15:34:00,
2013-02-15 09:40:00,27.5,6.8,29.66,North,-999,-999.0,-999.0,41,0.00,,,0.00,meteohub,2013-02-15 15:40:00,
2013-02-15 09:45:00,27.9,7.2,29.66,North,-999,-999.0,-999.0,41,0.00,,,0.00,meteohub,2013-02-15 15:45:00,
2013-02-15 09:50:00,27.9,7.2,29.66,North,-999,-999.0,-999.0,41,0.00,,,0.00,meteohub,2013-02-15 15:50:00,
2013-02-15 09:56:00,27.7,7.0,29.66,North,-999,-999.0,-999.0,41,0.00,,,0.00,meteohub,2013-02-15 15:56:00,
2013-02-15 10:01:00,28.6,7.9,29.66,North,-999,-999.0,-999.0,41,0.00,,,0.00,meteohub,2013-02-15 16:01:00,
2013-02-15 10:06:00,28.4,7.7,29.66,North,-999,-999.0,-999.0,41,0.00,,,0.00,meteohub,2013-02-15 16:06:00,
2013-02-15 10:11:00,28.6,7.9,29.66,North,-999,-999.0,-999.0,41,0.00,,,0.00,meteohub,2013-02-15 16:11:00,
2013-02-15 10:17:00,28.8,8.1,29.66,North,-999,-999.0,-999.0,41,0.00,,,0.00,meteohub,2013-02-15 16:17:00,
2013-02-15 10:22:00,28.8,8.1,29.66,North,-999,-999.0,-999.0,41,0.00,,,0.00,meteohub,2013-02-15 16:22:00,
2013-02-15 10:27:00,29.5,8.6,29.66,North,-999,-999.0,-999.0,41,0.00,,,0.00,meteohub,2013-02-15 16:27:00,
2013-02-15 10:32:00,29.5,8.6,29.66,North,-999,-999.0,-999.0,41,0.00,,,0.00,meteohub,2013-02-15 16:32:00,
2013-02-15 10:37:00,30.2,9.3,29.66,North,-999,-999.0,-999.0,41,0.00,,,0.00,meteohub,2013-02-15 16:37:00,
2013-02-15 10:42:00,30.2,9.3,29.66,North,-999,-999.0,-999.0,41,0.00,,,0.00,meteohub,2013-02-15 16:42:00,
2013-02-15 10:47:00,30.2,9.3,29.66,North,-999,-999.0,-999.0,41,0.00,,,0.00,meteohub,2013-02-15 16:47:00,
2013-02-15 10:52:00,30.7,9.9,29.66,North,-999,-999.0,-999.0,41,0.00,,,0.00,meteohub,2013-02-15 16:52:00,
2013-02-15 10:57:00,31.1,10.2,29.66,North,-999,-999.0,-999.0,41,0.00,,,0.00,meteohub,2013-02-15 16:57:00,
2013-02-15 11:02:00,31.6,10.6,29.66,North,-999,-999.0,-999.0,41,0.00,,,0.00,meteohub,2013-02-15 17:02:00,
2013-02-15 11:07:00,32.2,11.1,29.66,North,-999,-999.0,-999.0,41,0.00,,,0.00,meteohub,2013-02-15 17:07:00,
2013-02-15 11:12:00,32.5,11.5,29.63,North,-999,-999.0,-999.0,41,0.00,,,0.00,meteohub,2013-02-15 17:12:00,
2013-02-15 11:17:00,32.7,11.7,29.63,North,-999,-999.0,-999.0,41,0.00,,,0.00,meteohub,2013-02-15 17:17:00,
2013-02-15 11:22:00,32.7,11.7,29.63,North,-999,-999.0,-999.0,41,0.00,,,0.00,meteohub,2013-02-15 17:22:00,
2013-02-15 11:27:00,32.7,11.7,29.63,North,-999,-999.0,-999.0,41,0.00,,,0.00,meteohub,2013-02-15 17:27:00,
2013-02-15 11:32:00,32.5,11.5,29.63,North,-999,-999.0,-999.0,41,0.00,,,0.00,meteohub,2013-02-15 17:32:00,
2013-02-15 11:37:00,33.6,12.4,29.63,North,-999,-999.0,-999.0,41,0.00,,,0.00,meteohub,2013-02-15 17:37:00,
2013-02-15 11:42:00,33.8,12.0,29.66,North,-999,-999.0,-999.0,40,0.00,,,0.00,meteohub,2013-02-15 17:42:00,
2013-02-15 11:47:00,34.5,12.7,29.66,North,-999,-999.0,-999.0,40,0.00,,,0.00,meteohub,2013-02-15 17:47:00,
2013-02-15 11:52:00,34.2,12.4,29.66,North,-999,-999.0,-999.0,40,0.00,,,0.00,meteohub,2013-02-15 17:52:00,
2013-02-15 11:57:00,34.2,12.4,29.63,North,-999,-999.0,-999.0,40,0.00,,,0.00,meteohub,2013-02-15 17:57:00,
2013-02-15 12:02:00,34.3,12.6,29.63,North,-999,-999.0,-999.0,40,0.00,,,0.00,meteohub,2013-02-15 18:02:00,
2013-02-15 12:07:00,34.0,12.2,29.63,North,-999,-999.0,-999.0,40,0.00,,,0.00,meteohub,2013-02-15 18:07:00,
2013-02-15 12:12:00,34.0,12.2,29.63,North,-999,-999.0,-999.0,40,0.00,,,0.00,meteohub,2013-02-15 18:12:00,
2013-02-15 12:17:00,34.2,12.4,29.63,North,-999,-999.0,-999.0,40,0.00,,,0.00,meteohub,2013-02-15 18:17:00,
2013-02-15 12:22:00,35.1,13.1,29.63,North,-999,-999.0,-999.0,40,0.00,,,0.00,meteohub,2013-02-15 18:22:00,
2013-02-15 12:27:00,34.7,12.9,29.63,North,-999,-999.0,-999.0,40,0.00,,,0.00,meteohub,2013-02-15 18:27:00,
2013-02-15 12:50:00,35.8,13.8,29.63,North,-999,-999.0,-999.0,40,0.00,,,0.00,meteohub,2013-02-15 18:50:00,
2013-02-15 12:59:00,35.8,13.8,29.60,North,-999,-999.0,-999.0,40,0.00,,,0.00,meteohub,2013-02-15 18:59:00,
2013-02-15 13:04:00,36.5,14.5,29.60,North,-999,-999.0,-999.0,40,0.00,,,0.00,meteohub,2013-02-15 19:04:00,
2013-02-15 13:33:00,37.0,14.9,29.60,North,-999,-999.0,-999.0,40,0.00,,,0.00,meteohub,2013-02-15 19:33:00,
2013-02-15 13:49:00,37.6,14.9,29.60,North,-999,-999.0,-999.0,39,0.00,,,0.00,meteohub,2013-02-15 19:49:00,
2013-02-15 13:55:00,38.1,15.3,29.57,North,-999,-999.0,-999.0,39,0.00,,,0.00,meteohub,2013-02-15 19:55:00,
2013-02-15 14:01:00,38.1,15.3,29.57,North,-999,-999.0,-999.0,39,0.00,,,0.00,meteohub,2013-02-15 20:01:00,
2013-02-15 14:06:00,38.1,15.3,29.57,North,-999,-999.0,-999.0,39,0.00,,,0.00,meteohub,2013-02-15 20:06:00,
2013-02-15 14:27:00,38.1,15.3,29.57,North,-999,-999.0,-999.0,39,0.00,,,0.00,meteohub,2013-02-15 20:27:00,
2013-02-15 14:40:00,38.8,16.0,29.57,North,-999,-999.0,-999.0,39,0.00,,,0.00,meteohub,2013-02-15 20:40:00,
2013-02-15 14:45:00,38.8,16.0,29.57,North,-999,-999.0,-999.0,39,0.00,,,0.00,meteohub,2013-02-15 20:45:00,
2013-02-15 14:50:00,38.7,15.8,29.57,North,-999,-999.0,-999.0,39,0.00,,,0.00,meteohub,2013-02-15 20:50:00,
2013-02-15 14:56:00,39.0,16.2,29.57,North,-999,-999.0,-999.0,39,0.00,,,0.00,meteohub,2013-02-15 20:56:00,
2013-02-15 15:01:00,39.0,16.2,29.57,North,-999,-999.0,-999.0,39,0.00,,,0.00,meteohub,2013-02-15 21:01:00,
2013-02-15 15:06:00,38.8,16.0,29.57,North,-999,-999.0,-999.0,39,0.00,,,0.00,meteohub,2013-02-15 21:06:00,
2013-02-15 15:11:00,38.7,15.8,29.57,North,-999,-999.0,-999.0,39,0.00,,,0.00,meteohub,2013-02-15 21:11:00,
2013-02-15 15:23:00,38.7,15.8,29.57,North,-999,-999.0,-999.0,39,0.00,,,0.00,meteohub,2013-02-15 21:23:00,
2013-02-15 15:29:00,38.7,15.8,29.57,North,-999,-999.0,-999.0,39,0.00,,,0.00,meteohub,2013-02-15 21:29:00,
2013-02-15 15:34:00,38.3,15.4,29.57,North,-999,-999.0,-999.0,39,0.00,,,0.00,meteohub,2013-02-15 21:34:00,
2013-02-15 15:39:00,38.5,15.6,29.57,North,-999,-999.0,-999.0,39,0.00,,,0.00,meteohub,2013-02-15 21:39:00,
2013-02-15 15:45:00,38.1,15.3,29.57,North,-999,-999.0,-999.0,39,0.00,,,0.00,meteohub,2013-02-15 21:45:00,
2013-02-15 15:50:00,37.9,15.3,29.57,North,-999,-999.0,-999.0,39,0.00,,,0.00,meteohub,2013-02-15 21:50:00,
2013-02-15 15:55:00,37.6,14.9,29.57,North,-999,-999.0,-999.0,39,0.00,,,0.00,meteohub,2013-02-15 21:55:00,
2013-02-15 16:00:00,37.6,14.9,29.57,North,-999,-999.0,-999.0,39,0.00,,,0.00,meteohub,2013-02-15 22:00:00,
2013-02-15 16:06:00,37.6,14.9,29.57,North,-999,-999.0,-999.0,39,0.00,,,0.00,meteohub,2013-02-15 22:06:00,
2013-02-15 16:11:00,37.6,14.9,29.57,North,-999,-999.0,-999.0,39,0.00,,,0.00,meteohub,2013-02-15 22:11:00,
2013-02-15 16:16:00,37.4,14.7,29.57,North,-999,-999.0,-999.0,39,0.00,,,0.00,meteohub,2013-02-15 22:16:00,
2013-02-15 16:22:00,37.0,14.9,29.57,North,-999,-999.0,-999.0,40,0.00,,,0.00,meteohub,2013-02-15 22:22:00,
2013-02-15 16:27:00,37.2,15.1,29.57,North,-999,-999.0,-999.0,40,0.00,,,0.00,meteohub,2013-02-15 22:27:00,
2013-02-15 16:37:00,36.3,14.4,29.57,North,-999,-999.0,-999.0,40,0.00,,,0.00,meteohub,2013-02-15 22:37:00,
2013-02-15 16:42:00,35.8,13.8,29.57,North,-999,-999.0,-999.0,40,0.00,,,0.00,meteohub,2013-02-15 22:42:00,
2013-02-15 16:47:00,35.4,13.5,29.57,North,-999,-999.0,-999.0,40,0.00,,,0.00,meteohub,2013-02-15 22:47:00,
2013-02-15 16:52:00,35.4,13.5,29.57,North,-999,-999.0,-999.0,40,0.00,,,0.00,meteohub,2013-02-15 22:52:00,
2013-02-15 16:57:00,35.2,13.3,29.60,North,-999,-999.0,-999.0,40,0.00,,,0.00,meteohub,2013-02-15 22:57:00,
2013-02-15 17:02:00,35.2,13.3,29.60,North,-999,-999.0,-999.0,40,0.00,,,0.00,meteohub,2013-02-15 23:02:00,
2013-02-15 17:07:00,34.7,12.9,29.60,North,-999,-999.0,-999.0,40,0.00,,,0.00,meteohub,2013-02-15 23:07:00,
2013-02-15 17:12:00,34.5,12.7,29.57,North,-999,-999.0,-999.0,40,0.00,,,0.00,meteohub,2013-02-15 23:12:00,
2013-02-15 17:17:00,34.5,12.7,29.57,North,-999,-999.0,-999.0,40,0.00,,,0.00,meteohub,2013-02-15 23:17:00,
2013-02-15 17:31:00,34.0,12.2,29.60,North,-999,-999.0,-999.0,40,0.00,,,0.00,meteohub,2013-02-15 23:31:00,
2013-02-15 17:36:00,33.8,12.0,29.60,North,-999,-999.0,-999.0,40,0.00,,,0.00,meteohub,2013-02-15 23:36:00,
2013-02-15 17:42:00,33.4,12.2,29.60,North,-999,-999.0,-999.0,41,0.00,,,0.00,meteohub,2013-02-15 23:42:00,
2013-02-15 17:47:00,33.3,12.0,29.60,North,-999,-999.0,-999.0,41,0.00,,,0.00,meteohub,2013-02-15 23:47:00,
2013-02-15 17:52:00,32.9,11.8,29.60,North,-999,-999.0,-999.0,41,0.00,,,0.00,meteohub,2013-02-15 23:52:00,
2013-02-15 17:57:00,32.7,11.7,29.60,North,-999,-999.0,-999.0,41,0.00,,,0.00,meteohub,2013-02-15 23:57:00,
2013-02-15 18:02:00,32.5,11.5,29.60,North,-999,-999.0,-999.0,41,0.00,,,0.00,meteohub,2013-02-16 00:02:00,
2013-02-15 18:07:00,32.4,11.3,29.60,North,-999,-999.0,-999.0,41,0.00,,,0.00,meteohub,2013-02-16 00:07:00,
2013-02-15 18:12:00,32.2,11.1,29.60,North,-999,-999.0,-999.0,41,0.00,,,0.00,meteohub,2013-02-16 00:12:00,
2013-02-15 18:17:00,32.0,10.9,29.60,North,-999,-999.0,-999.0,41,0.00,,,0.00,meteohub,2013-02-16 00:17:00,
2013-02-15 18:22:00,32.0,10.9,29.60,North,-999,-999.0,-999.0,41,0.00,,,0.00,meteohub,2013-02-16 00:22:00,
2013-02-15 18:27:00,31.8,10.8,29.60,North,-999,-999.0,-999.0,41,0.00,,,0.00,meteohub,2013-02-16 00:27:00,
2013-02-15 18:32:00,31.5,10.4,29.60,North,-999,-999.0,-999.0,41,0.00,,,0.00,meteohub,2013-02-16 00:32:00,
2013-02-15 18:37:00,31.5,10.4,29.60,North,-999,-999.0,-999.0,41,0.00,,,0.00,meteohub,2013-02-16 00:37:00,
2013-02-15 18:42:00,31.3,10.2,29.60,North,-999,-999.0,-999.0,41,0.00,,,0.00,meteohub,2013-02-16 00:42:00,
2013-02-15 18:47:00,31.1,10.2,29.60,North,-999,-999.0,-999.0,41,0.00,,,0.00,meteohub,2013-02-16 00:47:00,
2013-02-15 18:52:00,30.7,9.9,29.60,North,-999,-999.0,-999.0,41,0.00,,,0.00,meteohub,2013-02-16 00:52:00,
2013-02-15 18:57:00,30.4,9.5,29.60,North,-999,-999.0,-999.0,41,0.00,,,0.00,meteohub,2013-02-16 00:57:00,
2013-02-15 19:02:00,30.2,9.3,29.60,North,-999,-999.0,-999.0,41,0.00,,,0.00,meteohub,2013-02-16 01:02:00,
2013-02-15 19:07:00,30.0,9.1,29.60,North,-999,-999.0,-999.0,41,0.00,,,0.00,meteohub,2013-02-16 01:07:00,
2013-02-15 19:13:00,29.8,9.0,29.60,North,-999,-999.0,-999.0,41,0.00,,,0.00,meteohub,2013-02-16 01:13:00,
2013-02-15 19:18:00,29.7,8.8,29.60,North,-999,-999.0,-999.0,41,0.00,,,0.00,meteohub,2013-02-16 01:18:00,
2013-02-15 19:23:00,29.5,8.6,29.60,North,-999,-999.0,-999.0,41,0.00,,,0.00,meteohub,2013-02-16 01:23:00,
2013-02-15 19:29:00,29.3,8.6,29.60,North,-999,-999.0,-999.0,41,0.00,,,0.00,meteohub,2013-02-16 01:29:00,
2013-02-15 19:34:00,29.1,8.4,29.60,North,-999,-999.0,-999.0,41,0.00,,,0.00,meteohub,2013-02-16 01:34:00,
2013-02-15 19:39:00,28.9,8.2,29.60,North,-999,-999.0,-999.0,41,0.00,,,0.00,meteohub,2013-02-16 01:39:00,
2013-02-15 19:45:00,28.6,7.9,29.60,North,-999,-999.0,-999.0,41,0.00,,,0.00,meteohub,2013-02-16 01:45:00,
2013-02-15 19:50:00,28.6,7.9,29.60,North,-999,-999.0,-999.0,41,0.00,,,0.00,meteohub,2013-02-16 01:50:00,
2013-02-15 19:55:00,28.4,7.7,29.60,North,-999,-999.0,-999.0,41,0.00,,,0.00,meteohub,2013-02-16 01:55:00,
2013-02-15 20:00:00,28.2,7.5,29.60,North,-999,-999.0,-999.0,41,0.00,,,0.00,meteohub,2013-02-16 02:00:00,
2013-02-15 20:06:00,28.2,7.5,29.60,North,-999,-999.0,-999.0,41,0.00,,,0.00,meteohub,2013-02-16 02:06:00,
2013-02-15 20:11:00,28.0,7.3,29.60,North,-999,-999.0,-999.0,41,0.00,,,0.00,meteohub,2013-02-16 02:11:00,
2013-02-15 20:16:00,27.9,7.2,29.60,North,-999,-999.0,-999.0,41,0.00,,,0.00,meteohub,2013-02-16 02:16:00,
2013-02-15 20:21:00,27.9,7.2,29.60,North,-999,-999.0,-999.0,41,0.00,,,0.00,meteohub,2013-02-16 02:21:00,
2013-02-15 20:27:00,27.9,7.2,29.60,North,-999,-999.0,-999.0,41,0.00,,,0.00,meteohub,2013-02-16 02:27:00,
2013-02-15 20:32:00,27.9,7.2,29.60,North,-999,-999.0,-999.0,41,0.00,,,0.00,meteohub,2013-02-16 02:32:00,
2013-02-15 20:37:00,27.9,7.2,29.60,North,-999,-999.0,-999.0,41,0.00,,,0.00,meteohub,2013-02-16 02:37:00,
2013-02-15 20:42:00,27.9,7.2,29.60,North,-999,-999.0,-999.0,41,0.00,,,0.00,meteohub,2013-02-16 02:42:00,
2013-02-15 20:47:00,27.9,7.2,29.60,North,-999,-999.0,-999.0,41,0.00,,,0.00,meteohub,2013-02-16 02:47:00,
2013-02-15 20:52:00,27.9,7.2,29.60,North,-999,-999.0,-999.0,41,0.00,,,0.00,meteohub,2013-02-16 02:52:00,
2013-02-15 20:57:00,27.7,7.0,29.60,North,-999,-999.0,-999.0,41,0.00,,,0.00,meteohub,2013-02-16 02:57:00,
2013-02-15 21:02:00,27.7,7.0,29.60,North,-999,-999.0,-999.0,41,0.00,,,0.00,meteohub,2013-02-16 03:02:00,
2013-02-15 21:07:00,27.7,7.0,29.60,North,-999,-999.0,-999.0,41,0.00,,,0.00,meteohub,2013-02-16 03:07:00,
2013-02-15 21:12:00,27.5,6.8,29.60,North,-999,-999.0,-999.0,41,0.00,,,0.00,meteohub,2013-02-16 03:12:00,
2013-02-15 21:17:00,27.7,7.0,29.60,North,-999,-999.0,-999.0,41,0.00,,,0.00,meteohub,2013-02-16 03:17:00,
2013-02-15 21:22:00,27.5,6.8,29.60,North,-999,-999.0,-999.0,41,0.00,,,0.00,meteohub,2013-02-16 03:22:00,
2013-02-15 21:27:00,27.7,7.0,29.60,North,-999,-999.0,-999.0,41,0.00,,,0.00,meteohub,2013-02-16 03:27:00,
2013-02-15 21:33:00,27.9,7.2,29.60,North,-999,-999.0,-999.0,41,0.00,,,0.00,meteohub,2013-02-16 03:33:00,
2013-02-15 21:38:00,28.0,7.3,29.60,North,-999,-999.0,-999.0,41,0.00,,,0.00,meteohub,2013-02-16 03:38:00,
2013-02-15 21:43:00,28.0,7.3,29.60,North,-999,-999.0,-999.0,41,0.00,,,0.00,meteohub,2013-02-16 03:43:00,
2013-02-15 21:48:00,28.0,7.3,29.60,North,-999,-999.0,-999.0,41,0.00,,,0.00,meteohub,2013-02-16 03:48:00,
2013-02-15 21:54:00,28.2,7.5,29.60,North,-999,-999.0,-999.0,41,0.00,,,0.00,meteohub,2013-02-16 03:54:00,
2013-02-15 21:59:00,28.4,7.7,29.60,North,-999,-999.0,-999.0,41,0.00,,,0.00,meteohub,2013-02-16 03:59:00,
2013-02-15 22:04:00,28.4,7.7,29.60,North,-999,-999.0,-999.0,41,0.00,,,0.00,meteohub,2013-02-16 04:04:00,
2013-02-15 22:10:00,28.4,7.7,29.60,North,-999,-999.0,-999.0,41,0.00,,,0.00,meteohub,2013-02-16 04:10:00,
2013-02-15 22:15:00,28.4,7.7,29.60,North,-999,-999.0,-999.0,41,0.00,,,0.00,meteohub,2013-02-16 04:15:00,
2013-02-15 22:20:00,28.4,7.7,29.60,North,-999,-999.0,-999.0,41,0.00,,,0.00,meteohub,2013-02-16 04:20:00,
2013-02-15 22:25:00,28.4,7.7,29.57,North,-999,-999.0,-999.0,41,0.00,,,0.00,meteohub,2013-02-16 04:25:00,
2013-02-15 22:31:00,28.4,7.7,29.57,North,-999,-999.0,-999.0,41,0.00,,,0.00,meteohub,2013-02-16 04:31:00,
2013-02-15 22:36:00,28.2,7.5,29.57,North,-999,-999.0,-999.0,41,0.00,,,0.00,meteohub,2013-02-16 04:36:00,
2013-02-15 22:41:00,28.4,7.7,29.60,North,-999,-999.0,-999.0,41,0.00,,,0.00,meteohub,2013-02-16 04:41:00,
2013-02-15 22:46:00,28.2,7.5,29.60,North,-999,-999.0,-999.0,41,0.00,,,0.00,meteohub,2013-02-16 04:46:00,
2013-02-15 22:52:00,28.2,7.5,29.60,North,-999,-999.0,-999.0,41,0.00,,,0.00,meteohub,2013-02-16 04:52:00,
2013-02-15 22:57:00,28.2,7.5,29.60,North,-999,-999.0,-999.0,41,0.00,,,0.00,meteohub,2013-02-16 04:57:00,
2013-02-15 23:00:00,28.0,7.3,29.60,North,-999,-999.0,-999.0,41,0.00,,,0.00,meteohub,2013-02-16 05:00:00,
2013-02-15 23:01:00,28.0,7.3,29.60,North,-999,-999.0,-999.0,41,0.00,,,0.00,meteohub,2013-02-16 05:01:00,
2013-02-15 23:02:00,28.0,7.3,29.60,North,-999,-999.0,-999.0,41,0.00,,,0.00,meteohub,2013-02-16 05:02:00,
2013-02-15 23:03:00,28.0,7.3,29.60,North,-999,-999.0,-999.0,41,0.00,,,0.00,meteohub,2013-02-16 05:03:00,
2013-02-15 23:08:00,28.0,7.3,29.60,North,-999,-999.0,-999.0,41,0.00,,,0.00,meteohub,2013-02-16 05:08:00,
2013-02-15 23:14:00,28.0,7.3,29.60,North,-999,-999.0,-999.0,41,0.00,,,0.00,meteohub,2013-02-16 05:14:00,
2013-02-15 23:19:00,28.0,7.3,29.60,North,-999,-999.0,-999.0,41,0.00,,,0.00,meteohub,2013-02-16 05:19:00,
2013-02-15 23:23:00,28.0,7.3,29.60,North,-999,-999.0,-999.0,41,0.00,,,0.00,meteohub,2013-02-16 05:23:00,
2013-02-15 23:28:00,28.0,7.3,29.60,North,-999,-999.0,-999.0,41,0.00,,,0.00,meteohub,2013-02-16 05:28:00,
2013-02-15 23:33:00,28.0,7.3,29.60,North,-999,-999.0,-999.0,41,0.00,,,0.00,meteohub,2013-02-16 05:33:00,
2013-02-15 23:39:00,28.0,7.3,29.60,North,-999,-999.0,-999.0,41,0.00,,,0.00,meteohub,2013-02-16 05:39:00,
2013-02-15 23:44:00,28.0,7.3,29.60,North,-999,-999.0,-999.0,41,0.00,,,0.00,meteohub,2013-02-16 05:44:00,
2013-02-15 23:49:00,28.0,7.3,29.60,North,-999,-999.0,-999.0,41,0.00,,,0.00,meteohub,2013-02-16 05:49:00,
2013-02-15 23:55:00,28.0,7.3,29.57,North,-999,-999.0,-999.0,41,0.00,,,0.00,meteohub,2013-02-16 05:55:00,